Time;durP1;ratioP1;P1;durP2;ratioP2;P2;SDS_P1;SDS_P2;PMS_P1;PMS_P2;Temp;Humidity;BMP_temperature;BMP_pressure;BME280_temperature;BME280_humidity;BME280_pressure;Samples;Min_cycle;Max_cycle;Signal;HPM_P1;HPM_P2
2022/09/16 00:01:18;;;;;;;3.75;0.80;;;12.80;99.90;;;;;;5052896;28;20128;-47
2022/09/16 00:03:45;;;;;;;4.65;0.80;;;12.80;99.90;;;;;;5053213;28;20037;-45
2022/09/16 00:06:22;;;;;;;3.85;0.60;;;12.80;99.90;;;;;;5053171;28;20087;-48
2022/09/16 00:08:49;;;;;;;7.47;0.98;;;12.90;99.90;;;;;;5052873;28;20044;-48
2022/09/16 00:11:16;;;;;;;7.63;0.80;;;12.90;99.90;;;;;;5051276;28;21272;-44
2022/09/16 00:13:42;;;;;;;6.03;0.70;;;12.70;99.90;;;;;;5053111;28;20033;-43
2022/09/16 00:16:16;;;;;;;2.97;0.65;;;12.60;99.90;;;;;;5052377;28;20053;-44
2022/09/16 00:18:41;;;;;;;;;;;12.50;99.90;;;;;;5052615;28;20515;-44
2022/09/16 00:21:09;;;;;;;2.00;0.55;;;12.50;99.90;;;;;;5052579;28;19964;-46
2022/09/16 00:23:35;;;;;;;5.45;0.85;;;12.40;99.90;;;;;;5052740;28;20060;-47
2022/09/16 00:26:01;;;;;;;5.60;0.88;;;12.30;99.90;;;;;;5053103;28;20594;-45
2022/09/16 00:28:27;;;;;;;6.63;0.80;;;12.20;99.90;;;;;;5052509;28;20047;-45
2022/09/16 00:30:52;;;;;;;5.10;0.90;;;12.20;99.90;;;;;;5050777;28;20037;-45
2022/09/16 00:33:19;;;;;;;3.67;0.65;;;12.10;99.90;;;;;;5052631;28;20033;-44
2022/09/16 00:35:46;;;;;;;5.55;0.93;;;12.20;99.90;;;;;;5052721;28;20368;-44
2022/09/16 00:38:12;;;;;;;5.03;0.70;;;12.30;99.90;;;;;;5052645;28;20037;-45
2022/09/16 00:40:48;;;;;;;2.80;0.70;;;12.30;99.90;;;;;;5052508;28;20033;-45
2022/09/16 00:43:16;;;;;;;3.80;1.00;;;12.10;99.90;;;;;;5052408;28;20430;-48
2022/09/16 00:45:47;;;;;;;5.95;0.93;;;12.10;99.90;;;;;;5050933;28;20047;-45
2022/09/16 00:48:20;;;;;;;5.03;0.90;;;12.30;99.90;;;;;;5052018;28;20464;-45
2022/09/16 00:50:57;;;;;;;3.30;0.70;;;11.90;99.90;;;;;;5051992;28;20075;-48
2022/09/16 00:53:32;;;;;;;2.45;0.60;;;12.00;99.90;;;;;;5052368;28;20040;-45
2022/09/16 00:56:02;;;;;;;6.75;0.95;;;12.10;99.90;;;;;;5052003;28;20029;-46
2022/09/16 00:58:33;;;;;;;2.80;0.70;;;12.20;99.90;;;;;;5052318;28;20099;-46
2022/09/16 01:01:00;;;;;;;5.43;0.80;;;12.10;99.90;;;;;;5051604;28;20530;-47
2022/09/16 01:03:28;;;;;;;4.78;0.50;;;12.10;99.90;;;;;;5051664;28;20099;-47
2022/09/16 01:05:54;;;;;;;2.95;0.68;;;12.10;99.90;;;;;;5052015;28;20123;-45
2022/09/16 01:08:20;;;;;;;5.32;0.90;;;12.30;99.90;;;;;;5052039;28;20115;-46
2022/09/16 01:10:45;;;;;;;4.30;0.80;;;12.30;99.90;;;;;;5052042;28;20036;-47
2022/09/16 01:13:13;;;;;;;4.57;0.77;;;12.10;99.90;;;;;;5051493;28;20106;-48
2022/09/16 01:15:44;;;;;;;6.80;0.98;;;12.30;99.90;;;;;;5051598;28;20040;-49
2022/09/16 01:18:16;;;;;;;5.40;1.00;;;12.10;99.90;;;;;;5051293;28;20049;-45
2022/09/16 01:21:01;;;;;;;5.53;0.77;;;12.10;99.90;;;;;;5042298;28;20052;-47
2022/09/16 01:23:54;;;;;;;6.05;0.90;;;12.20;99.90;;;;;;5030638;28;20037;-46
2022/09/16 01:26:44;;;;;;;8.75;0.63;;;12.10;99.90;;;;;;5051588;28;20067;-47
2022/09/16 01:29:35;;;;;;;6.32;0.70;;;11.80;99.90;;;;;;5051557;28;20361;-47
2022/09/16 01:32:18;;;;;;;5.30;1.13;;;11.90;99.90;;;;;;5051695;28;20071;-46
2022/09/16 01:35:01;;;;;;;4.18;0.70;;;12.00;99.90;;;;;;5051411;28;20090;-46
2022/09/16 01:37:52;;;;;;;2.53;0.60;;;12.00;99.90;;;;;;5037249;28;20400;-46
2022/09/16 01:40:30;;;;;;;3.50;0.68;;;12.00;99.90;;;;;;5051367;28;20061;-47
2022/09/16 01:42:56;;;;;;;3.20;0.60;;;12.00;99.90;;;;;;5051188;28;20124;-48
2022/09/16 01:45:48;;;;;;;4.43;0.90;;;12.10;99.90;;;;;;5050863;28;20132;-48
2022/09/16 01:48:55;;;;;;;4.65;0.75;;;12.10;99.90;;;;;;5050607;28;20083;-48
2022/09/16 01:51:35;;;;;;;3.03;0.60;;;11.90;99.90;;;;;;5050574;28;20450;-45
2022/09/16 01:54:14;;;;;;;6.65;0.85;;;12.10;99.90;;;;;;5051199;28;20037;-48
2022/09/16 01:56:51;;;;;;;9.68;1.02;;;12.10;99.90;;;;;;5051348;28;20453;-45
2022/09/16 01:59:27;;;;;;;3.88;0.65;;;11.90;99.90;;;;;;5050553;28;20041;-45
2022/09/16 02:02:12;;;;;;;4.75;0.80;;;11.90;99.90;;;;;;5051086;28;20041;-48
2022/09/16 02:04:50;;;;;;;4.20;0.98;;;11.90;99.90;;;;;;5051134;28;20068;-47
2022/09/16 02:07:20;;;;;;;3.90;0.70;;;11.80;99.90;;;;;;5050959;28;20039;-45
2022/09/16 02:09:53;;;;;;;5.25;0.80;;;11.80;99.90;;;;;;5050403;28;20095;-46
2022/09/16 02:12:32;;;;;;;7.65;1.20;;;11.70;99.90;;;;;;5050660;28;20037;-44
2022/09/16 02:15:04;;;;;;;3.85;0.70;;;11.80;99.90;;;;;;5050274;28;20527;-48
2022/09/16 02:17:34;;;;;;;3.63;0.68;;;11.70;99.90;;;;;;5050042;28;20060;-46
2022/09/16 02:20:09;;;;;;;2.90;0.60;;;11.60;99.90;;;;;;5050642;28;20506;-47
2022/09/16 02:22:43;;;;;;;4.65;0.90;;;11.60;99.90;;;;;;5050872;28;20408;-46
2022/09/16 02:25:11;;;;;;;4.05;0.93;;;11.80;99.90;;;;;;5050545;28;20059;-45
2022/09/16 02:27:39;;;;;;;4.20;0.95;;;11.70;99.90;;;;;;5050825;28;20037;-44
2022/09/16 02:30:09;;;;;;;7.20;1.30;;;12.00;99.90;;;;;;5050770;28;20045;-46
2022/09/16 02:32:40;;;;;;;4.68;0.95;;;12.00;99.90;;;;;;5048341;28;20049;-45
2022/09/16 02:35:11;;;;;;;4.63;0.90;;;11.80;99.90;;;;;;5050601;28;20077;-48
2022/09/16 02:37:48;;;;;;;6.20;0.82;;;11.80;99.90;;;;;;5050607;28;20045;-45
2022/09/16 02:40:29;;;;;;;4.75;1.08;;;11.80;99.90;;;;;;5050726;28;20068;-46
2022/09/16 02:42:57;;;;;;;3.75;0.82;;;12.00;99.90;;;;;;5050648;28;20112;-45
2022/09/16 02:45:29;;;;;;;4.03;0.90;;;11.90;99.90;;;;;;5050107;28;20138;-48
2022/09/16 02:48:08;;;;;;;2.90;0.90;;;11.70;99.90;;;;;;5050270;28;20037;-46
2022/09/16 02:50:49;;;;;;;3.40;0.98;;;11.60;99.90;;;;;;5050584;28;20499;-44
2022/09/16 02:53:26;;;;;;;4.63;1.05;;;11.60;99.90;;;;;;5050630;28;20097;-48
2022/09/16 02:56:04;;;;;;;8.13;1.00;;;11.50;99.90;;;;;;5050820;28;20049;-48
2022/09/16 02:58:30;;;;;;;4.28;1.00;;;11.60;99.90;;;;;;5050232;28;20110;-44
2022/09/16 03:00:57;;;;;;;7.57;1.00;;;11.50;99.90;;;;;;5036436;28;20045;-44
2022/09/16 03:03:23;;;;;;;4.82;1.05;;;11.40;99.90;;;;;;5050527;28;20435;-44
2022/09/16 03:06:07;;;;;;;2.42;0.82;;;11.40;99.90;;;;;;5033542;28;20091;-46
2022/09/16 03:08:35;;;;;;;3.65;0.80;;;11.50;99.90;;;;;;5050524;28;20459;-46
2022/09/16 03:11:19;;;;;;;3.17;0.80;;;11.40;99.90;;;;;;5050231;28;20121;-49
2022/09/16 03:13:58;;;;;;;5.05;0.98;;;11.40;99.90;;;;;;5050335;28;20049;-45
2022/09/16 03:16:51;;;;;;;2.30;0.70;;;11.50;99.90;;;;;;5049804;28;20056;-46
2022/09/16 03:19:16;;;;;;;4.65;0.73;;;11.60;99.90;;;;;;5008048;28;20067;-44
2022/09/16 03:22:04;;;;;;;6.32;1.13;;;11.50;99.90;;;;;;5052326;28;20032;-44
2022/09/16 03:24:53;;;;;;;4.93;0.85;;;11.50;99.90;;;;;;5053770;28;20494;-44
2022/09/16 03:27:37;;;;;;;4.07;0.70;;;11.40;99.90;;;;;;5054032;28;20080;-47
2022/09/16 03:30:03;;;;;;;5.25;0.77;;;11.50;99.90;;;;;;5053505;28;20111;-46
2022/09/16 03:32:55;;;;;;;3.75;0.82;;;11.40;99.90;;;;;;5053937;28;20125;-44
2022/09/16 03:35:37;;;;;;;4.53;0.80;;;11.40;99.90;;;;;;5044880;28;20058;-46
2022/09/16 03:38:05;;;;;;;2.17;0.60;;;11.30;99.90;;;;;;5053716;28;20044;-46
2022/09/16 03:40:33;;;;;;;8.30;0.88;;;11.20;99.90;;;;;;5053324;28;20044;-44
2022/09/16 03:42:58;;;;;;;2.50;0.55;;;11.30;99.90;;;;;;5053377;28;20052;-45
2022/09/16 03:45:24;;;;;;;5.63;0.77;;;11.20;99.90;;;;;;5053153;28;20045;-47
2022/09/16 03:47:52;;;;;;;2.85;0.85;;;11.20;99.90;;;;;;5017484;28;20064;-45
2022/09/16 03:50:19;;;;;;;3.90;0.70;;;11.30;99.90;;;;;;5053135;28;20059;-48
2022/09/16 03:52:45;;;;;;;5.22;0.77;;;11.30;99.90;;;;;;5053098;28;20088;-46
2022/09/16 03:55:11;;;;;;;5.00;0.80;;;11.20;99.90;;;;;;5053362;28;20068;-45
2022/09/16 03:57:37;;;;;;;5.05;0.82;;;11.40;99.90;;;;;;5053193;28;20037;-44
2022/09/16 04:00:07;;;;;;;5.05;0.98;;;11.20;99.90;;;;;;5053000;28;20067;-45
2022/09/16 04:02:33;;;;;;;8.77;1.00;;;11.40;99.90;;;;;;5053388;28;20043;-46
2022/09/16 04:04:58;;;;;;;5.25;1.20;;;11.30;99.90;;;;;;5053212;28;20153;-46
2022/09/16 04:07:24;;;;;;;4.75;0.77;;;11.50;99.90;;;;;;5053339;28;20087;-46
2022/09/16 04:09:50;;;;;;;8.38;1.20;;;11.30;99.90;;;;;;5052895;28;20040;-48
2022/09/16 04:12:15;;;;;;;7.80;1.23;;;11.50;99.90;;;;;;5053182;28;20128;-46
2022/09/16 04:14:41;;;;;;;8.40;1.52;;;11.50;99.90;;;;;;5053055;28;20454;-46
2022/09/16 04:17:07;;;;;;;6.68;0.90;;;11.60;99.90;;;;;;5052415;28;20131;-45
2022/09/16 04:19:32;;;;;;;7.30;1.52;;;11.60;99.90;;;;;;5052536;28;20112;-48
2022/09/16 04:21:58;;;;;;;6.97;1.10;;;11.60;99.90;;;;;;5052901;28;20076;-47
2022/09/16 04:24:24;;;;;;;5.50;1.10;;;11.50;99.90;;;;;;5052776;28;20040;-44
2022/09/16 04:26:49;;;;;;;9.85;1.65;;;11.60;99.90;;;;;;5052883;28;20044;-44
2022/09/16 04:29:16;;;;;;;8.25;1.30;;;11.50;99.90;;;;;;5052639;28;20049;-44
2022/09/16 04:31:42;;;;;;;4.45;0.80;;;11.40;99.90;;;;;;5052280;28;20506;-45
2022/09/16 04:34:10;;;;;;;6.25;1.10;;;11.60;99.90;;;;;;5052439;28;20037;-51
2022/09/16 04:36:36;;;;;;;7.00;1.15;;;11.40;99.90;;;;;;5052280;28;20041;-46
2022/09/16 04:39:02;;;;;;;10.57;1.20;;;11.60;99.90;;;;;;5052531;28;20549;-45
2022/09/16 04:41:28;;;;;;;7.28;0.98;;;11.40;99.90;;;;;;5051922;28;20041;-46
2022/09/16 04:43:56;;;;;;;8.75;1.20;;;11.40;99.90;;;;;;5052108;28;20110;-44
2022/09/16 04:46:23;;;;;;;8.07;1.02;;;11.60;99.90;;;;;;5052452;28;20052;-45
2022/09/16 04:48:50;;;;;;;4.30;0.98;;;11.50;99.90;;;;;;5052271;28;20115;-48
2022/09/16 04:51:16;;;;;;;7.80;1.13;;;11.30;99.90;;;;;;5052247;28;20040;-45
2022/09/16 04:53:44;;;;;;;7.00;1.15;;;11.30;99.90;;;;;;5052254;28;20072;-45
2022/09/16 04:56:18;;;;;;;7.53;1.17;;;11.50;99.90;;;;;;5050934;28;20727;-45
2022/09/16 04:58:44;;;;;;;;;;;11.50;99.90;;;;;;5052605;28;20033;-44
2022/09/16 05:01:12;;;;;;;7.18;0.95;;;11.30;99.90;;;;;;5051979;28;20360;-47
2022/09/16 05:03:43;;;;;;;6.93;0.90;;;11.30;99.90;;;;;;5051932;28;20069;-46
2022/09/16 05:06:12;;;;;;;6.32;0.90;;;11.30;99.90;;;;;;5052117;28;20041;-45
2022/09/16 05:08:39;;;;;;;9.60;1.40;;;11.30;99.90;;;;;;5051975;28;20094;-47
2022/09/16 05:11:10;;;;;;;10.52;1.38;;;11.40;99.90;;;;;;5051891;28;20280;-46
2022/09/16 05:13:36;;;;;;;9.50;1.33;;;11.40;99.90;;;;;;5051862;28;20052;-45
2022/09/16 05:16:08;;;;;;;11.15;1.63;;;11.40;99.90;;;;;;5051195;28;20148;-45
2022/09/16 05:18:35;;;;;;;7.18;1.10;;;11.50;99.90;;;;;;5051534;28;20041;-44
2022/09/16 05:21:03;;;;;;;6.05;0.88;;;11.40;99.90;;;;;;5051806;28;20361;-46
2022/09/16 05:23:29;;;;;;;7.25;0.90;;;11.50;99.90;;;;;;5051701;28;20468;-46
2022/09/16 05:26:05;;;;;;;10.85;1.13;;;11.50;99.90;;;;;;5051539;28;20471;-48
2022/09/16 05:28:31;;;;;;;5.78;0.93;;;11.40;99.90;;;;;;5036852;28;20037;-44
2022/09/16 05:31:12;;;;;;;7.60;1.30;;;11.30;99.90;;;;;;5051252;28;20036;-46
2022/09/16 05:34:02;;;;;;;5.18;0.85;;;11.20;99.90;;;;;;5051472;28;20036;-49
2022/09/16 05:36:31;;;;;;;6.68;0.77;;;11.00;99.90;;;;;;5051290;28;20033;-45
2022/09/16 05:38:56;;;;;;;4.85;1.10;;;11.10;99.90;;;;;;5051355;28;20479;-46
2022/09/16 05:41:23;;;;;;;7.68;1.25;;;11.20;99.90;;;;;;5051451;28;20082;-47
2022/09/16 05:43:48;;;;;;;8.60;1.02;;;11.20;99.90;;;;;;5050200;28;20076;-48
2022/09/16 05:46:21;;;;;;;9.32;1.23;;;11.00;99.90;;;;;;5051276;28;20080;-45
2022/09/16 05:48:47;;;;;;;7.85;0.73;;;11.00;99.90;;;;;;5050537;28;20051;-44
2022/09/16 05:51:16;;;;;;;7.72;1.00;;;11.00;99.90;;;;;;5051378;28;20429;-48
2022/09/16 05:53:42;;;;;;;8.68;1.50;;;11.00;99.90;;;;;;5050853;28;20037;-44
2022/09/16 05:56:12;;;;;;;8.15;1.20;;;10.80;99.90;;;;;;5050511;28;20041;-47
2022/09/16 05:58:38;;;;;;;9.23;1.30;;;10.90;99.90;;;;;;5051177;28;20496;-46
2022/09/16 06:01:11;;;;;;;9.95;1.20;;;11.00;99.90;;;;;;5051161;28;20033;-47
2022/09/16 06:03:38;;;;;;;6.97;1.58;;;11.00;99.90;;;;;;5051317;28;20391;-44
2022/09/16 06:06:27;;;;;;;7.55;1.25;;;11.10;99.90;;;;;;5048978;28;20460;-46
2022/09/16 06:08:55;;;;;;;9.40;1.20;;;11.10;99.90;;;;;;5036408;28;20056;-44
2022/09/16 06:11:22;;;;;;;8.15;1.13;;;11.00;99.90;;;;;;5050669;28;20178;-46
2022/09/16 06:13:55;;;;;;;9.32;1.20;;;11.10;99.90;;;;;;5048736;28;20043;-45
2022/09/16 06:16:24;;;;;;;6.65;1.17;;;11.00;99.90;;;;;;5050531;28;20049;-45
2022/09/16 06:18:50;;;;;;;5.20;0.80;;;11.00;99.90;;;;;;5050362;28;20037;-47
2022/09/16 06:21:16;;;;;;;8.23;1.13;;;10.90;99.90;;;;;;5042695;28;20041;-43
2022/09/16 06:23:42;;;;;;;6.88;1.05;;;11.10;99.90;;;;;;5043691;28;20044;-44
2022/09/16 06:26:14;;;;;;;5.78;1.42;;;11.00;99.90;;;;;;5046432;28;20033;-44
2022/09/16 06:28:40;;;;;;;10.00;1.30;;;11.00;99.90;;;;;;5044858;28;20047;-45
2022/09/16 06:31:07;;;;;;;7.50;1.08;;;11.10;99.90;;;;;;5045892;28;20029;-44
2022/09/16 06:33:34;;;;;;;6.18;0.98;;;11.20;99.90;;;;;;5046695;28;20143;-46
2022/09/16 06:36:05;;;;;;;7.45;1.20;;;11.20;99.90;;;;;;5045585;28;21971;-45
2022/09/16 06:38:30;;;;;;;7.47;1.52;;;11.30;99.90;;;;;;5043285;28;20045;-43
2022/09/16 06:41:01;;;;;;;7.30;1.13;;;11.50;99.90;;;;;;5046525;28;20372;-48
2022/09/16 06:43:27;;;;;;;9.48;1.10;;;11.70;99.90;;;;;;5044908;28;20387;-46
2022/09/16 06:46:01;;;;;;;7.32;0.98;;;11.80;99.90;;;;;;5047629;28;20464;-45
2022/09/16 06:48:27;;;;;;;8.02;1.25;;;11.90;99.90;;;;;;5046145;28;20460;-45
2022/09/16 06:51:14;;;;;;;7.07;0.93;;;12.00;99.90;;;;;;5036771;28;20387;-47
2022/09/16 06:53:40;;;;;;;5.25;0.90;;;12.10;99.90;;;;;;5045837;28;20029;-44
2022/09/16 06:56:11;;;;;;;10.35;1.30;;;12.00;99.90;;;;;;5049044;28;20565;-44
2022/09/16 06:58:40;;;;;;;7.45;1.02;;;12.00;99.90;;;;;;5047339;28;20040;-47
2022/09/16 07:01:11;;;;;;;5.93;0.93;;;12.10;99.90;;;;;;5049461;28;20423;-45
2022/09/16 07:03:39;;;;;;;4.80;0.73;;;12.10;99.90;;;;;;5047402;28;20511;-45
2022/09/16 07:06:05;;;;;;;5.90;1.23;;;12.20;99.90;;;;;;5048750;28;20035;-45
2022/09/16 07:08:32;;;;;;;8.55;1.10;;;12.20;99.90;;;;;;5049310;28;20464;-47
2022/09/16 07:11:00;;;;;;;6.10;0.85;;;12.20;99.90;;;;;;5047179;28;20040;-43
2022/09/16 07:13:26;;;;;;;5.85;1.00;;;12.30;99.90;;;;;;5046536;28;20041;-45
2022/09/16 07:15:53;;;;;;;7.97;1.20;;;12.40;99.90;;;;;;5045328;28;20060;-48
2022/09/16 07:18:19;;;;;;;7.70;1.33;;;12.40;99.90;;;;;;5044982;28;20063;-44
2022/09/16 07:20:44;;;;;;;6.50;1.38;;;12.50;99.90;;;;;;5048214;28;20032;-46
2022/09/16 07:23:10;;;;;;;8.10;1.00;;;12.50;99.90;;;;;;5049328;28;20452;-47
2022/09/16 07:25:36;;;;;;;7.35;1.10;;;12.50;99.90;;;;;;5050133;28;20438;-46
2022/09/16 07:28:02;;;;;;;6.78;1.00;;;12.60;99.90;;;;;;5051360;28;20504;-46
2022/09/16 07:30:29;;;;;;;7.40;1.08;;;12.60;99.90;;;;;;5046952;28;20140;-45
2022/09/16 07:32:55;;;;;;;6.18;1.92;;;12.60;99.90;;;;;;5049227;28;20032;-47
2022/09/16 07:35:21;;;;;;;6.20;1.13;;;12.70;99.90;;;;;;5049214;28;20112;-45
2022/09/16 07:37:47;;;;;;;7.40;1.17;;;12.80;99.90;;;;;;5045944;28;20037;-49
2022/09/16 07:40:12;;;;;;;8.00;1.38;;;12.80;99.90;;;;;;5045569;28;20044;-44
2022/09/16 07:42:38;;;;;;;8.35;1.30;;;12.90;99.90;;;;;;5047870;28;20512;-46
2022/09/16 07:45:05;;;;;;;11.85;1.73;;;12.90;99.90;;;;;;5048253;28;20171;-47
2022/09/16 07:47:31;;;;;;;8.68;1.35;;;12.90;99.90;;;;;;5048084;28;20044;-44
2022/09/16 07:49:58;;;;;;;7.38;1.20;;;13.00;99.90;;;;;;5045835;28;20036;-47
2022/09/16 07:52:28;;;;;;;10.68;1.27;;;13.20;99.90;;;;;;5045473;28;20047;-45
2022/09/16 07:54:54;;;;;;;11.70;1.52;;;13.20;99.90;;;;;;5045834;28;20424;-46
2022/09/16 07:57:21;;;;;;;7.50;1.23;;;13.30;99.90;;;;;;5043544;28;20523;-47
2022/09/16 07:59:47;;;;;;;8.15;1.30;;;13.20;99.90;;;;;;5048136;28;20036;-46
2022/09/16 08:02:12;;;;;;;8.45;1.42;;;13.20;99.90;;;;;;5046364;28;20029;-47
2022/09/16 08:04:38;;;;;;;8.10;1.65;;;13.30;99.90;;;;;;5032464;28;20059;-45
2022/09/16 08:07:05;;;;;;;9.43;1.20;;;13.50;99.90;;;;;;5033981;28;20043;-44
2022/09/16 08:09:31;;;;;;;6.70;1.05;;;13.50;99.90;;;;;;5044263;28;20061;-46
2022/09/16 08:11:58;;;;;;;7.38;1.38;;;13.60;99.90;;;;;;5047601;28;20090;-48
2022/09/16 08:14:24;;;;;;;7.63;1.05;;;13.50;99.90;;;;;;5047846;28;20036;-47
2022/09/16 08:16:50;;;;;;;8.95;1.17;;;13.50;99.90;;;;;;5047793;28;20545;-48
2022/09/16 08:19:16;;;;;;;5.65;0.90;;;13.60;99.90;;;;;;5048343;28;20041;-48
2022/09/16 08:21:42;;;;;;;7.18;1.10;;;13.60;99.90;;;;;;5045454;28;20154;-46
2022/09/16 08:24:09;;;;;;;10.02;1.50;;;13.60;99.90;;;;;;5022824;28;20083;-48
2022/09/16 08:26:35;;;;;;;7.07;1.10;;;13.90;99.90;;;;;;5041645;28;20125;-46
2022/09/16 08:29:01;;;;;;;7.65;1.10;;;13.90;99.90;;;;;;5037611;28;20067;-46
2022/09/16 08:31:27;;;;;;;10.60;1.63;;;14.00;99.90;;;;;;5043169;28;20028;-50
2022/09/16 08:33:53;;;;;;;7.15;1.20;;;14.10;99.90;;;;;;5043813;28;20037;-47
2022/09/16 08:36:22;;;;;;;6.50;1.23;;;14.00;99.90;;;;;;5043785;28;21927;-47
2022/09/16 08:38:55;;;;;;;7.85;1.02;;;14.00;99.90;;;;;;5040756;28;20033;-47
2022/09/16 08:41:45;;;;;;;9.50;1.83;;;14.10;99.90;;;;;;5041580;28;20475;-49
2022/09/16 08:44:29;;;;;;;7.97;1.15;;;14.20;99.90;;;;;;5027504;28;20033;-46
2022/09/16 08:47:01;;;;;;;8.45;1.58;;;14.40;99.90;;;;;;5044434;28;20925;-45
2022/09/16 08:49:40;;;;;;;8.13;1.10;;;14.40;99.90;;;;;;5043435;28;20174;-45
2022/09/16 08:52:37;;;;;;;6.97;1.58;;;14.70;99.90;;;;;;5045635;28;20045;-48
2022/09/16 08:55:12;;;;;;;9.45;1.30;;;14.70;99.90;;;;;;5044513;28;20539;-49
2022/09/16 08:57:41;;;;;;;8.57;1.70;;;14.70;99.90;;;;;;5038917;28;20036;-48
2022/09/16 09:00:14;;;;;;;10.95;1.83;;;14.80;99.90;;;;;;5042995;28;20037;-47
2022/09/16 09:02:51;;;;;;;12.75;1.60;;;15.00;99.90;;;;;;5042244;28;20425;-48
2022/09/16 09:05:21;;;;;;;14.35;2.15;;;15.00;99.90;;;;;;5025876;28;20120;-48
2022/09/16 09:08:10;;;;;;;9.23;1.52;;;15.00;99.90;;;;;;5042288;28;20048;-46
2022/09/16 09:10:46;;;;;;;9.75;1.67;;;15.00;99.90;;;;;;5041288;28;20032;-47
2022/09/16 09:13:25;;;;;;;10.45;2.22;;;15.10;99.90;;;;;;5043513;28;20090;-48
2022/09/16 09:16:18;;;;;;;10.35;2.40;;;14.90;99.90;;;;;;5043338;28;20140;-47
2022/09/16 09:19:06;;;;;;;12.07;1.98;;;15.10;99.90;;;;;;5039307;28;20275;-47
2022/09/16 09:21:48;;;;;;;12.38;2.15;;;15.30;99.90;;;;;;5043971;28;20036;-46
2022/09/16 09:24:35;;;;;;;11.20;1.98;;;15.50;99.90;;;;;;5040618;28;20041;-49
2022/09/16 09:27:12;;;;;;;10.52;2.28;;;15.40;99.90;;;;;;5042998;28;20049;-44
2022/09/16 09:29:38;;;;;;;11.35;2.00;;;15.30;99.90;;;;;;5039945;28;20051;-44
2022/09/16 09:32:15;;;;;;;13.82;2.08;;;15.60;99.90;;;;;;5042838;28;20048;-47
2022/09/16 09:34:53;;;;;;;13.60;2.03;;;15.90;99.90;;;;;;5042503;28;20041;-46
2022/09/16 09:37:47;;;;;;;11.13;2.00;;;15.90;99.90;;;;;;5047069;28;20036;-47
2022/09/16 09:40:42;;;;;;;8.32;1.90;;;16.00;99.90;;;;;;5046146;28;20068;-49
2022/09/16 09:43:34;;;;;;;9.50;1.60;;;16.30;99.90;;;;;;5043578;28;20543;-50
2022/09/16 09:46:12;;;;;;;8.38;1.73;;;16.20;99.90;;;;;;5041875;28;20282;-50
2022/09/16 09:48:56;;;;;;;11.48;1.85;;;16.00;99.90;;;;;;5044942;28;20089;-47
2022/09/16 09:51:22;;;;;;;;;;;15.60;99.90;;;;;;5037497;28;20034;-45
2022/09/16 09:53:55;;;;;;;13.32;1.95;;;15.20;99.90;;;;;;5045609;28;19927;-47
2022/09/16 09:56:32;;;;;;;10.85;1.63;;;15.30;99.90;;;;;;5043342;28;20106;-47
2022/09/16 09:59:28;;;;;;;8.13;1.73;;;15.60;99.90;;;;;;5043026;28;20392;-49
2022/09/16 10:01:55;;;;;;;10.48;1.67;;;15.90;99.90;;;;;;5044924;28;20037;-46
2022/09/16 10:04:21;;;;;;;10.40;1.48;;;16.00;99.90;;;;;;5044827;28;20037;-50
2022/09/16 10:06:48;;;;;;;12.63;2.40;;;16.20;99.90;;;;;;5042554;28;20424;-46
2022/09/16 10:09:16;;;;;;;8.88;1.80;;;16.20;99.90;;;;;;5043778;28;20090;-49
2022/09/16 10:11:47;;;;;;;12.15;1.80;;;16.50;99.90;;;;;;5044281;28;20051;-47
2022/09/16 10:14:34;;;;;;;9.63;1.85;;;16.70;99.90;;;;;;5044373;28;20170;-45
2022/09/16 10:17:03;;;;;;;8.45;1.88;;;16.60;99.90;;;;;;5043736;28;20090;-48
2022/09/16 10:19:33;;;;;;;10.82;1.65;;;16.30;99.90;;;;;;5043003;28;20029;-47
2022/09/16 10:22:18;;;;;;;9.70;2.30;;;16.20;99.90;;;;;;5044843;28;20553;-47
2022/09/16 10:24:53;;;;;;;11.00;2.00;;;15.40;99.90;;;;;;5045083;28;20351;-47
2022/09/16 10:27:22;;;;;;;10.50;1.70;;;14.40;99.90;;;;;;5035378;28;20430;-44
2022/09/16 10:30:01;;;;;;;14.00;2.25;;;14.00;99.90;;;;;;5044543;28;20106;-48
2022/09/16 10:32:27;;;;;;;8.40;1.77;;;13.80;99.90;;;;;;5044525;28;23220;-47
2022/09/16 10:34:53;;;;;;;11.90;2.03;;;13.90;99.90;;;;;;5043078;28;20048;-49
2022/09/16 10:37:19;;;;;;;14.02;2.53;;;14.40;99.90;;;;;;5027163;28;20102;-47
2022/09/16 10:39:54;;;;;;;11.85;2.05;;;14.60;99.90;;;;;;5043644;28;20037;-44
2022/09/16 10:42:26;;;;;;;9.68;1.85;;;14.60;99.90;;;;;;5042876;28;20041;-47
2022/09/16 10:45:00;;;;;;;9.60;1.95;;;15.00;99.90;;;;;;5040264;28;20047;-46
2022/09/16 10:47:30;;;;;;;12.60;2.58;;;15.40;99.90;;;;;;5043018;28;20047;-44
2022/09/16 10:50:00;;;;;;;9.30;1.90;;;15.70;99.90;;;;;;5024163;28;20189;-46
2022/09/16 10:52:29;;;;;;;8.48;1.83;;;15.90;99.90;;;;;;5037912;28;20035;-46
2022/09/16 10:54:55;;;;;;;12.68;2.28;;;15.80;99.90;;;;;;5042451;28;20608;-47
2022/09/16 10:57:27;;;;;;;11.20;2.00;;;15.50;99.90;;;;;;5040430;28;20041;-47
2022/09/16 10:59:57;;;;;;;13.20;2.25;;;15.20;99.90;;;;;;5042255;28;20040;-47
2022/09/16 11:02:32;;;;;;;17.17;2.15;;;15.10;99.90;;;;;;5037998;28;20124;-44
2022/09/16 11:05:04;;;;;;;11.60;2.10;;;15.30;99.90;;;;;;5035057;28;20029;-48
2022/09/16 11:07:45;;;;;;;13.55;2.42;;;15.90;99.90;;;;;;5039267;28;20396;-49
2022/09/16 11:10:22;;;;;;;8.90;1.40;;;16.40;99.90;;;;;;5038696;28;20064;-47
2022/09/16 11:13:30;;;;;;;8.60;1.60;;;16.10;99.90;;;;;;5039021;28;20037;-44
2022/09/16 11:16:18;;;;;;;5.25;1.05;;;14.30;99.90;;;;;;5036397;28;20045;-45
2022/09/16 11:19:11;;;;;;;6.20;1.23;;;13.90;99.90;;;;;;5035694;28;20041;-46
2022/09/16 11:21:36;;;;;;;19.08;1.98;;;14.30;99.90;;;;;;5043773;28;20041;-48
2022/09/16 11:24:40;;;;;;;9.75;2.03;;;14.60;99.90;;;;;;5037317;28;20038;-46
2022/09/16 11:27:31;;;;;;;8.27;1.63;;;15.00;99.90;;;;;;5039922;28;20037;-46
2022/09/16 11:30:09;;;;;;;15.30;2.08;;;15.40;99.90;;;;;;5036208;28;20037;-48
2022/09/16 11:32:56;;;;;;;7.55;1.70;;;15.70;99.90;;;;;;5034652;28;20805;-47
2022/09/16 11:35:30;;;;;;;10.82;1.75;;;16.10;99.90;;;;;;5047171;28;20044;-47
2022/09/16 11:38:09;;;;;;;11.52;1.73;;;16.40;99.90;;;;;;5048998;28;20488;-49
2022/09/16 11:41:27;;;;;;;5.95;1.23;;;16.50;99.90;;;;;;5048779;28;20049;-48
2022/09/16 11:44:07;;;;;;;7.57;1.20;;;16.00;99.90;;;;;;5047522;28;20040;-48
2022/09/16 11:46:39;;;;;;;8.32;1.40;;;16.50;99.90;;;;;;5052566;28;20463;-47
2022/09/16 11:49:10;;;;;;;7.85;1.35;;;16.80;99.90;;;;;;5033514;28;20084;-46
2022/09/16 11:51:45;;;;;;;7.22;1.50;;;17.20;99.90;;;;;;5051068;28;20047;-47
2022/09/16 11:54:43;;;;;;;8.23;1.90;;;17.10;99.90;;;;;;5048624;28;20044;-48
2022/09/16 11:57:17;;;;;;;7.40;1.42;;;16.20;99.90;;;;;;5046858;28;20045;-46
2022/09/16 11:59:51;;;;;;;6.60;1.15;;;16.20;99.90;;;;;;5045305;28;20083;-50
2022/09/16 12:02:38;;;;;;;5.45;0.93;;;16.60;99.90;;;;;;5043070;28;20055;-45
2022/09/16 12:05:22;;;;;;;8.77;1.52;;;17.10;99.90;;;;;;5052606;28;20033;-48
2022/09/16 12:07:54;;;;;;;8.05;1.20;;;17.30;99.90;;;;;;5053104;28;20043;-47
2022/09/16 12:10:25;;;;;;;8.20;1.52;;;17.70;99.90;;;;;;5053138;28;20384;-47
2022/09/16 12:13:09;;;;;;;5.32;1.17;;;17.90;99.90;;;;;;5053050;28;20503;-48
2022/09/16 12:15:41;;;;;;;4.63;0.95;;;17.70;99.90;;;;;;5049046;28;20036;-46
2022/09/16 12:18:13;;;;;;;4.90;1.02;;;17.60;99.90;;;;;;5052055;28;20057;-47
2022/09/16 12:20:49;;;;;;;6.22;1.23;;;17.80;99.90;;;;;;5052926;28;20094;-45
2022/09/16 12:23:22;;;;;;;9.73;1.60;;;16.70;99.90;;;;;;5052637;28;20120;-46
2022/09/16 12:25:58;;;;;;;7.18;1.52;;;16.10;99.90;;;;;;5053097;28;20036;-47
2022/09/16 12:28:51;;;;;;;9.25;1.40;;;16.30;99.90;;;;;;5052485;28;20046;-49
2022/09/16 12:31:45;;;;;;;9.55;1.60;;;16.90;99.90;;;;;;5052078;28;20067;-47
2022/09/16 12:34:21;;;;;;;8.47;1.13;;;16.50;99.90;;;;;;5052877;28;20468;-48
2022/09/16 12:36:54;;;;;;;7.57;1.08;;;16.10;99.90;;;;;;5052556;28;20387;-47
2022/09/16 12:39:20;;;;;;;4.35;0.68;;;15.70;99.90;;;;;;5052486;28;20041;-46
2022/09/16 12:42:10;;;;;;;4.22;0.90;;;15.70;99.90;;;;;;5050900;28;20028;-47
2022/09/16 12:44:54;;;;;;;4.63;1.23;;;16.20;99.90;;;;;;5052271;28;20037;-46
2022/09/16 12:47:29;;;;;;;;;;;16.60;99.90;;;;;;5052827;28;20039;-46
2022/09/16 12:50:04;;;;;;;9.10;1.20;;;17.20;99.90;;;;;;5051913;28;19921;-45
2022/09/16 12:53:07;;;;;;;6.70;1.13;;;17.70;99.90;;;;;;5052123;28;20052;-45
2022/09/16 12:55:57;;;;;;;8.70;1.60;;;18.20;99.90;;;;;;5052319;28;20414;-48
2022/09/16 12:58:50;;;;;;;4.70;0.70;;;18.10;99.90;;;;;;5050215;28;20049;-45
2022/09/16 13:01:34;;;;;;;6.03;1.00;;;17.40;98.70;;;;;;5051552;28;20091;-46
2022/09/16 13:04:16;;;;;;;5.20;0.82;;;17.40;99.60;;;;;;5050790;28;20041;-45
2022/09/16 13:06:50;;;;;;;9.13;1.30;;;17.70;99.40;;;;;;5052063;28;20041;-49
2022/09/16 13:09:21;;;;;;;7.90;1.17;;;17.90;99.70;;;;;;5051777;28;20392;-48
2022/09/16 13:11:56;;;;;;;6.90;1.50;;;18.00;98.90;;;;;;5037620;28;20047;-46
2022/09/16 13:14:42;;;;;;;8.30;1.13;;;18.30;99.30;;;;;;5051730;28;20036;-48
2022/09/16 13:17:10;;;;;;;8.45;1.65;;;18.60;99.50;;;;;;5051330;28;20521;-49